LSPL weather

Langenthal Airport
Canton of Berne, Switzerland

Public forecast

Using degrees Celsius for public forecast. Weather courtesy of forecast.io.

Closest aviation weather report (METAR) to Langenthal Airport

Closest report is Grenchen Airport, 13.2 nm (24.5 km) W. Retrieved 2020/04/08 18:20 UTC (24 minutes ago):

LSZG 081820Z AUTO 04002KT 9999 NSC 15/02 Q1022

Closest aviation forecast (TAF) to Langenthal Airport

Closest forecast is Emmen Air Base, 23.7 nm (43.8 km) ESE. Retrieved 2020/04/08 17:00 UTC (2 hours ago):

TAF LSME 081625Z 0817/0923 VRB03KT CAVOK TEMPO 0817/0918 9999 FEW080